createdAt,value
2023-02-03T00:02:27.119Z,80.90
2023-02-03T00:06:09.458Z,81.00
2023-02-03T00:09:51.623Z,81.00
2023-02-03T00:13:35.351Z,81.00
2023-02-03T00:17:17.378Z,81.10
2023-02-03T00:20:59.555Z,81.10
2023-02-03T00:24:41.518Z,81.20
2023-02-03T00:28:23.712Z,81.20
2023-02-03T00:32:05.955Z,81.20
2023-02-03T00:35:47.962Z,81.60
2023-02-03T00:39:29.905Z,81.30
2023-02-03T00:43:13.164Z,81.50
2023-02-03T00:46:55.146Z,81.50
2023-02-03T00:50:37.251Z,82.20
2023-02-03T00:54:19.696Z,82.00
2023-02-03T00:58:01.631Z,82.00
2023-02-03T01:01:43.571Z,81.90
2023-02-03T01:05:25.944Z,82.40
2023-02-03T01:09:08.146Z,82.10
2023-02-03T01:12:50.162Z,82.00
2023-02-03T01:16:36.340Z,82.30
2023-02-03T01:20:18.611Z,82.50
2023-02-03T01:24:01.254Z,82.70
2023-02-03T01:27:43.307Z,82.50
2023-02-03T01:31:37.291Z,82.70
2023-02-03T01:35:19.439Z,82.80
2023-02-03T01:39:02.119Z,82.50
2023-02-03T01:42:44.048Z,82.70
2023-02-03T01:46:30.432Z,82.60
2023-02-03T01:50:24.153Z,82.50
2023-02-03T01:54:10.588Z,82.40
2023-02-03T01:58:06.850Z,82.40
2023-02-03T02:01:49.615Z,82.50
2023-02-03T02:05:47.112Z,82.40
2023-02-03T02:09:29.619Z,82.40
2023-02-03T02:13:12.993Z,82.50
2023-02-03T02:17:12.033Z,82.50
2023-02-03T02:21:22.220Z,82.50
2023-02-03T02:25:23.926Z,82.50
2023-02-03T02:29:27.714Z,82.40
2023-02-03T02:33:18.650Z,82.60
2023-02-03T02:37:35.412Z,82.40
2023-02-03T02:41:40.011Z,82.60
2023-02-03T02:45:33.650Z,82.40
2023-02-03T02:49:22.246Z,82.40
2023-02-03T02:53:06.036Z,82.60
2023-02-03T02:56:52.548Z,82.40
2023-02-03T03:00:36.522Z,82.50
2023-02-03T03:04:23.543Z,82.50
2023-02-03T03:08:06.442Z,82.60
2023-02-03T03:11:58.423Z,82.60
2023-02-03T03:15:41.857Z,82.60
2023-02-03T03:19:27.200Z,82.50
2023-02-03T03:23:16.749Z,82.50
2023-02-03T03:27:08.426Z,82.40
2023-02-03T03:30:50.650Z,82.40
2023-02-03T03:34:33.585Z,82.40
2023-02-03T03:38:40.202Z,82.40
2023-02-03T03:42:52.957Z,82.50
2023-02-03T03:46:44.434Z,82.40
2023-02-03T03:50:31.846Z,82.40
2023-02-03T03:54:17.462Z,82.40
2023-02-03T03:58:13.097Z,82.40
2023-02-03T04:01:55.587Z,82.50
2023-02-03T04:05:39.683Z,82.50
2023-02-03T04:09:21.669Z,82.40
2023-02-03T04:13:04.432Z,82.40
2023-02-03T04:16:46.371Z,82.30
2023-02-03T04:20:29.546Z,82.30
2023-02-03T04:24:12.225Z,82.30
2023-02-03T04:27:55.675Z,82.10
2023-02-03T04:31:38.804Z,82.30
2023-02-03T04:35:20.815Z,82.20
2023-02-03T04:39:03.459Z,82.20
2023-02-03T04:42:45.552Z,82.20
2023-02-03T04:46:27.590Z,82.20
2023-02-03T04:50:09.836Z,82.30
2023-02-03T04:53:51.784Z,82.40
2023-02-03T04:57:33.727Z,82.40
2023-02-03T05:01:15.826Z,82.40
2023-02-03T05:04:57.732Z,82.30
2023-02-03T05:08:39.651Z,82.50
2023-02-03T05:12:21.623Z,82.60
2023-02-03T05:16:03.655Z,82.50
2023-02-03T05:19:45.814Z,82.50
2023-02-03T05:23:27.816Z,82.40
2023-02-03T05:27:09.823Z,82.40
2023-02-03T05:30:51.884Z,82.30
2023-02-03T05:34:33.839Z,82.20
2023-02-03T05:38:15.797Z,82.30
2023-02-03T05:41:58.599Z,82.20
2023-02-03T05:45:40.846Z,82.30
2023-02-03T05:49:26.108Z,82.40
2023-02-03T05:53:08.757Z,82.40
2023-02-03T05:56:51.080Z,82.50
2023-02-03T06:00:33.219Z,82.50
2023-02-03T06:04:15.202Z,82.50
2023-02-03T06:07:57.470Z,82.50
2023-02-03T06:11:39.457Z,82.50
2023-02-03T06:15:21.541Z,82.50
2023-02-03T06:19:03.534Z,82.50
2023-02-03T06:22:45.805Z,82.50
2023-02-03T06:26:27.704Z,82.50
2023-02-03T06:30:11.903Z,82.50
2023-02-03T06:33:53.808Z,82.50
2023-02-03T06:37:36.113Z,82.50
2023-02-03T06:41:18.037Z,82.50
2023-02-03T06:45:02.989Z,82.50
2023-02-03T06:48:45.165Z,82.50
2023-02-03T06:52:27.090Z,82.50
2023-02-03T06:56:09.023Z,82.50
2023-02-03T06:59:51.022Z,82.50
2023-02-03T07:03:32.968Z,82.50
2023-02-03T07:07:14.893Z,82.40
2023-02-03T07:10:56.929Z,82.40
2023-02-03T07:14:50.366Z,82.50
2023-02-03T07:18:48.301Z,82.50
2023-02-03T07:22:30.348Z,82.40
2023-02-03T07:26:12.441Z,82.40
2023-02-03T07:29:54.963Z,82.30
2023-02-03T07:33:37.908Z,82.20
2023-02-03T07:37:19.787Z,82.20
2023-02-03T07:41:01.731Z,82.20
2023-02-03T07:44:43.690Z,82.30
2023-02-03T07:48:25.732Z,82.40
2023-02-03T07:52:07.654Z,82.40
2023-02-03T07:55:49.566Z,82.40
2023-02-03T07:59:31.495Z,82.40
2023-02-03T08:03:13.589Z,82.40
2023-02-03T08:06:55.577Z,82.60
2023-02-03T08:10:37.575Z,82.40
2023-02-03T08:14:19.513Z,82.40
2023-02-03T08:18:02.021Z,82.50
2023-02-03T08:21:43.985Z,82.40
2023-02-03T08:25:25.917Z,82.50
2023-02-03T08:29:07.959Z,82.30
2023-02-03T08:32:50.088Z,82.30
2023-02-03T08:36:32.130Z,82.40
2023-02-03T08:40:14.115Z,82.40
2023-02-03T08:43:56.844Z,82.40
2023-02-03T08:47:39.394Z,82.30
2023-02-03T08:51:21.379Z,82.30
2023-02-03T08:55:03.351Z,82.30
2023-02-03T08:58:45.393Z,82.30
2023-02-03T09:02:27.422Z,82.30
2023-02-03T09:06:13.206Z,82.30
2023-02-03T09:09:55.377Z,82.20
2023-02-03T09:13:38.915Z,82.20
2023-02-03T09:17:20.997Z,82.20
2023-02-03T09:21:04.648Z,82.20
2023-02-03T09:24:48.689Z,82.10
2023-02-03T09:28:30.935Z,82.10
2023-02-03T09:32:15.320Z,82.20
2023-02-03T09:35:58.832Z,82.20
2023-02-03T09:39:40.877Z,82.30
2023-02-03T09:43:49.107Z,82.30
2023-02-03T09:47:39.530Z,82.30
2023-02-03T09:51:32.288Z,82.20
2023-02-03T09:55:38.989Z,82.10
2023-02-03T09:59:21.186Z,82.10
2023-02-03T10:03:07.443Z,82.10
2023-02-03T10:06:49.970Z,82.10
2023-02-03T10:10:35.305Z,82.00
2023-02-03T10:14:29.208Z,81.90
2023-02-03T10:18:17.602Z,81.80
2023-02-03T10:22:01.598Z,81.90
2023-02-03T10:25:57.140Z,81.70
2023-02-03T10:29:42.995Z,81.70
2023-02-03T10:33:30.226Z,81.70
2023-02-03T10:37:24.031Z,81.50
2023-02-03T10:41:06.270Z,81.60
2023-02-03T10:44:59.825Z,81.40
2023-02-03T10:48:42.022Z,81.40
2023-02-03T10:52:32.715Z,81.40
2023-02-03T10:56:18.421Z,81.50
2023-02-03T11:00:19.585Z,81.30
2023-02-03T11:04:05.687Z,81.20
2023-02-03T11:07:48.269Z,81.10
2023-02-03T11:11:33.944Z,81.00
2023-02-03T11:15:15.936Z,81.10
2023-02-03T11:19:19.193Z,80.90
2023-02-03T11:23:01.714Z,80.60
2023-02-03T11:26:54.382Z,80.50
2023-02-03T11:30:37.991Z,80.60
2023-02-03T11:34:29.843Z,80.60
2023-02-03T11:38:33.333Z,80.80
2023-02-03T11:42:25.088Z,80.80
2023-02-03T11:46:10.116Z,80.80
2023-02-03T11:50:09.015Z,80.50
2023-02-03T11:54:12.371Z,80.40
2023-02-03T11:58:09.652Z,80.30
2023-02-03T12:01:56.739Z,80.40
2023-02-03T12:06:01.608Z,80.40
2023-02-03T12:10:21.310Z,80.10
2023-02-03T12:14:03.224Z,80.00
2023-02-03T12:18:05.683Z,79.50
2023-02-03T12:21:58.992Z,79.60
2023-02-03T12:26:02.415Z,79.40
2023-02-03T12:29:51.458Z,79.50
2023-02-03T12:33:40.582Z,79.10
2023-02-03T12:37:30.783Z,79.10
2023-02-03T12:41:24.663Z,79.00
2023-02-03T12:45:12.737Z,79.20
2023-02-03T12:49:13.633Z,79.00
2023-02-03T12:53:06.277Z,78.40
2023-02-03T12:56:52.759Z,78.80
2023-02-03T13:01:06.068Z,78.60
2023-02-03T13:05:06.191Z,78.00
2023-02-03T13:08:58.756Z,77.80
2023-02-03T13:12:44.398Z,77.80
2023-02-03T13:16:34.888Z,77.60
2023-02-03T13:20:22.981Z,77.40
2023-02-03T13:24:05.198Z,77.60
2023-02-03T13:32:11.546Z,77.30
2023-02-03T13:36:03.639Z,77.00
2023-02-03T13:40:04.019Z,76.40
2023-02-03T13:43:50.929Z,77.40
2023-02-03T13:47:33.473Z,77.90
2023-02-03T13:51:20.952Z,78.50
2023-02-03T13:55:04.656Z,77.40
2023-02-03T13:59:14.306Z,77.00
2023-02-03T14:02:56.825Z,76.60
2023-02-03T14:06:38.807Z,76.40
2023-02-03T14:10:24.398Z,76.10
2023-02-03T14:14:09.252Z,76.20
2023-02-03T14:17:54.348Z,75.60
2023-02-03T14:21:53.643Z,75.40
2023-02-03T14:25:48.232Z,74.80
2023-02-03T14:29:35.290Z,75.10
2023-02-03T14:33:17.283Z,75.30
2023-02-03T14:37:20.077Z,75.40
2023-02-03T14:41:06.106Z,74.40
2023-02-03T14:45:32.935Z,75.00
2023-02-03T14:49:51.250Z,73.30
2023-02-03T14:53:57.219Z,74.10
2023-02-03T14:57:56.450Z,73.40
2023-02-03T15:01:38.318Z,74.00
2023-02-03T15:05:20.630Z,74.40
2023-02-03T15:09:12.910Z,74.10
2023-02-03T15:12:58.236Z,74.40
2023-02-03T15:16:43.312Z,74.40
2023-02-03T15:20:35.026Z,74.40
2023-02-03T15:24:22.275Z,74.70
2023-02-03T15:28:19.498Z,74.60
2023-02-03T15:32:13.739Z,74.50
2023-02-03T15:36:06.947Z,74.60
2023-02-03T15:40:04.668Z,75.10
2023-02-03T15:43:49.971Z,75.10
2023-02-03T15:47:57.471Z,75.40
2023-02-03T15:51:51.378Z,76.10
2023-02-03T15:55:45.231Z,76.10
2023-02-03T15:59:42.728Z,76.30
2023-02-03T16:03:37.450Z,76.40
2023-02-03T16:07:25.941Z,76.30
2023-02-03T16:11:30.868Z,76.30
2023-02-03T16:15:23.867Z,76.20
2023-02-03T16:19:21.366Z,76.30
2023-02-03T16:23:17.605Z,76.20
2023-02-03T16:27:51.391Z,76.30
2023-02-03T16:32:04.902Z,76.40
2023-02-03T16:36:05.638Z,76.50
2023-02-03T16:40:06.088Z,76.50
2023-02-03T16:44:06.816Z,76.60
2023-02-03T16:48:07.488Z,76.70
2023-02-03T16:51:49.454Z,76.90
2023-02-03T16:55:31.770Z,77.10
2023-02-03T16:59:13.894Z,77.10
2023-02-03T17:02:57.704Z,77.20
2023-02-03T17:06:41.457Z,77.30
2023-02-03T17:10:23.653Z,77.40
2023-02-03T17:14:05.711Z,77.40
2023-02-03T17:17:47.648Z,77.50
2023-02-03T17:21:30.908Z,77.60
2023-02-03T17:25:13.129Z,77.70
2023-02-03T17:28:55.284Z,77.80
2023-02-03T17:32:37.262Z,78.00
2023-02-03T17:36:21.719Z,78.00
2023-02-03T17:56:11.213Z,78.40
2023-02-03T17:59:55.339Z,78.50
2023-02-03T18:03:37.369Z,78.60
2023-02-03T18:07:19.404Z,78.60
2023-02-03T18:11:02.081Z,78.60
2023-02-03T18:14:44.168Z,78.60
2023-02-03T18:18:26.449Z,78.60
2023-02-03T18:22:08.487Z,78.60
2023-02-03T18:25:54.503Z,78.70
2023-02-03T18:29:36.771Z,78.80
2023-02-03T18:33:18.750Z,78.70
2023-02-03T18:37:00.767Z,78.80
2023-02-03T18:40:42.906Z,78.80
2023-02-03T18:44:27.884Z,78.90
2023-02-03T18:48:09.878Z,79.00
2023-02-03T18:51:53.657Z,79.10
2023-02-03T18:55:35.637Z,79.10
2023-02-03T18:59:18.138Z,79.20
2023-02-03T19:03:00.249Z,79.20
2023-02-03T19:06:45.624Z,79.30
2023-02-03T19:10:27.959Z,79.50
2023-02-03T19:14:12.110Z,79.40
2023-02-03T19:17:54.100Z,79.40
2023-02-03T19:21:36.114Z,79.50
2023-02-03T19:25:18.252Z,79.50
2023-02-03T19:29:00.192Z,79.60
2023-02-03T19:32:42.307Z,79.70
2023-02-03T19:36:24.343Z,79.70
2023-02-03T19:44:07.070Z,79.80
2023-02-03T19:47:49.626Z,79.70
2023-02-03T19:51:31.593Z,79.80
2023-02-03T19:55:14.252Z,80.00
2023-02-03T19:58:56.588Z,80.00
2023-02-03T20:02:38.530Z,80.00
2023-02-03T20:06:20.828Z,79.80
2023-02-03T20:10:02.987Z,79.80
2023-02-03T20:13:45.046Z,79.80
2023-02-03T20:17:28.063Z,79.80
2023-02-03T20:21:13.695Z,79.90
2023-02-03T20:24:55.638Z,79.90
2023-02-03T20:28:37.669Z,79.90
2023-02-03T20:32:19.906Z,80.00
2023-02-03T20:36:01.855Z,80.10
2023-02-03T20:39:43.935Z,79.80
2023-02-03T20:43:27.875Z,80.00
2023-02-03T20:47:15.256Z,80.10
2023-02-03T20:50:57.328Z,79.80
2023-02-03T20:54:46.489Z,79.90
2023-02-03T20:58:33.563Z,79.90
2023-02-03T21:06:15.069Z,80.50
2023-02-03T21:10:00.350Z,80.50
2023-02-03T21:13:45.298Z,79.90
2023-02-03T21:17:27.571Z,80.00
2023-02-03T21:21:15.897Z,80.10
2023-02-03T21:25:00.033Z,80.10
2023-02-03T21:28:42.045Z,80.20
2023-02-03T21:32:26.347Z,80.30
2023-02-03T21:36:19.971Z,80.30
2023-02-03T21:40:02.004Z,80.40
2023-02-03T21:43:49.400Z,80.40
2023-02-03T21:47:31.367Z,80.40
2023-02-03T21:51:16.628Z,80.50
2023-02-03T21:54:58.546Z,80.60
2023-02-03T21:58:40.555Z,80.60
2023-02-03T22:03:01.309Z,80.60
2023-02-03T22:06:53.929Z,80.80
2023-02-03T22:10:36.119Z,80.60
2023-02-03T22:14:22.402Z,80.60
2023-02-03T22:18:04.607Z,80.70
2023-02-03T22:21:48.612Z,80.60
2023-02-03T22:25:30.608Z,80.60
2023-02-03T22:29:12.560Z,80.60
2023-02-03T22:32:54.615Z,80.70
2023-02-03T22:36:36.542Z,80.80
2023-02-03T22:40:18.926Z,80.90
2023-02-03T22:44:00.876Z,80.90
2023-02-03T22:47:43.481Z,81.00
2023-02-03T22:51:25.730Z,80.90
2023-02-03T22:55:09.307Z,81.10
2023-02-03T22:58:51.399Z,81.00
2023-02-03T23:02:33.293Z,81.10
2023-02-03T23:06:15.397Z,81.20
2023-02-03T23:09:57.641Z,81.20
2023-02-03T23:13:39.699Z,81.10
2023-02-03T23:17:21.866Z,81.20
2023-02-03T23:21:03.911Z,81.20
2023-02-03T23:24:46.098Z,81.20
2023-02-03T23:28:28.077Z,81.20
2023-02-03T23:32:11.136Z,81.30
2023-02-03T23:35:53.394Z,81.10
2023-02-03T23:39:35.312Z,81.30
2023-02-03T23:43:17.515Z,81.20
2023-02-03T23:46:59.598Z,81.20
2023-02-03T23:50:41.600Z,81.20
2023-02-03T23:54:23.804Z,81.20
2023-02-03T23:58:05.967Z,81.20
